sensor_id;sensor_type;location;lat;lon;timestamp;pressure;altitude;pressure_sealevel;temperature;humidity
39555;BME280;25231;48.746;9.234;2023-01-09T00:01:19;95036.00;;;6.37;100.00
39555;BME280;25231;48.746;9.234;2023-01-09T00:03:46;95023.56;;;6.39;100.00
39555;BME280;25231;48.746;9.234;2023-01-09T00:06:11;95027.97;;;6.38;100.00
39555;BME280;25231;48.746;9.234;2023-01-09T00:08:36;95030.41;;;6.45;100.00
39555;BME280;25231;48.746;9.234;2023-01-09T00:11:02;95033.84;;;6.50;100.00
39555;BME280;25231;48.746;9.234;2023-01-09T00:13:27;95034.63;;;6.51;100.00
39555;BME280;25231;48.746;9.234;2023-01-09T00:15:52;95033.84;;;6.50;100.00
39555;BME280;25231;48.746;9.234;2023-01-09T00:18:18;95033.88;;;6.55;100.00
39555;BME280;25231;48.746;9.234;2023-01-09T00:20:43;95033.59;;;6.52;100.00
39555;BME280;25231;48.746;9.234;2023-01-09T00:23:08;95026.09;;;6.55;100.00
39555;BME280;25231;48.746;9.234;2023-01-09T00:25:34;95030.31;;;6.61;100.00
39555;BME280;25231;48.746;9.234;2023-01-09T00:28:00;95031.06;;;6.57;100.00
39555;BME280;25231;48.746;9.234;2023-01-09T00:30:25;95030.31;;;6.61;100.00
39555;BME280;25231;48.746;9.234;2023-01-09T00:32:50;95030.84;;;6.63;100.00
39555;BME280;25231;48.746;9.234;2023-01-09T00:35:17;95025.41;;;6.65;100.00
39555;BME280;25231;48.746;9.234;2023-01-09T00:37:43;95030.09;;;6.63;100.00
39555;BME280;25231;48.746;9.234;2023-01-09T00:40:09;95039.19;;;6.65;100.00
39555;BME280;25231;48.746;9.234;2023-01-09T00:42:36;95035.84;;;6.70;100.00
39555;BME280;25231;48.746;9.234;2023-01-09T00:45:07;95043.66;;;6.70;100.00
39555;BME280;25231;48.746;9.234;2023-01-09T00:47:39;95043.66;;;6.70;100.00
39555;BME280;25231;48.746;9.234;2023-01-09T00:50:11;95044.81;;;6.79;100.00
39555;BME280;25231;48.746;9.234;2023-01-09T00:52:38;95048.69;;;6.77;100.00
39555;BME280;25231;48.746;9.234;2023-01-09T00:55:05;95035.72;;;6.82;100.00
39555;BME280;25231;48.746;9.234;2023-01-09T00:57:31;95036.97;;;6.74;100.00
39555;BME280;25231;48.746;9.234;2023-01-09T00:59:57;95033.63;;;6.79;100.00
39555;BME280;25231;48.746;9.234;2023-01-09T01:02:23;95040.88;;;6.77;100.00
39555;BME280;25231;48.746;9.234;2023-01-09T01:04:48;95033.13;;;6.82;100.00
39555;BME280;25231;48.746;9.234;2023-01-09T01:07:32;95035.25;;;6.85;100.00
39555;BME280;25231;48.746;9.234;2023-01-09T01:10:12;95032.50;;;6.75;100.00
39555;BME280;25231;48.746;9.234;2023-01-09T01:12:41;95027.91;;;6.82;100.00
39555;BME280;25231;48.746;9.234;2023-01-09T01:15:07;95034.44;;;6.84;100.00
39555;BME280;25231;48.746;9.234;2023-01-09T01:17:35;95025.00;;;6.78;100.00
39555;BME280;25231;48.746;9.234;2023-01-09T01:20:01;95021.91;;;6.81;100.00
39555;BME280;25231;48.746;9.234;2023-01-09T01:22:26;95031.06;;;6.84;100.00
39555;BME280;25231;48.746;9.234;2023-01-09T01:24:52;95024.50;;;6.81;100.00
39555;BME280;25231;48.746;9.234;2023-01-09T01:27:17;95021.34;;;6.74;100.00
39555;BME280;25231;48.746;9.234;2023-01-09T01:29:42;95022.41;;;6.78;100.00
39555;BME280;25231;48.746;9.234;2023-01-09T01:32:08;95026.63;;;6.84;100.00
39555;BME280;25231;48.746;9.234;2023-01-09T01:34:33;95017.44;;;6.77;100.00
39555;BME280;25231;48.746;9.234;2023-01-09T01:36:58;95015.19;;;6.85;100.00
39555;BME280;25231;48.746;9.234;2023-01-09T01:39:24;95018.22;;;6.77;100.00
39555;BME280;25231;48.746;9.234;2023-01-09T01:41:49;95014.88;;;6.82;100.00
39555;BME280;25231;48.746;9.234;2023-01-09T01:47:18;95019.81;;;6.78;100.00
39555;BME280;25231;48.746;9.234;2023-01-09T01:49:45;95012.84;;;6.84;100.00
39555;BME280;25231;48.746;9.234;2023-01-09T01:52:11;95005.75;;;6.79;100.00
39555;BME280;25231;48.746;9.234;2023-01-09T01:54:37;95005.44;;;6.76;100.00
39555;BME280;25231;48.746;9.234;2023-01-09T01:57:03;95014.00;;;6.71;100.00
39555;BME280;25231;48.746;9.234;2023-01-09T01:59:39;95032.72;;;6.68;100.00
39555;BME280;25231;48.746;9.234;2023-01-09T02:02:05;95030.19;;;6.73;100.00
39555;BME280;25231;48.746;9.234;2023-01-09T02:04:33;95037.63;;;6.64;100.00
39555;BME280;25231;48.746;9.234;2023-01-09T02:07:02;95038.19;;;6.66;100.00
39555;BME280;25231;48.746;9.234;2023-01-09T02:09:29;95028.59;;;6.72;100.00
39555;BME280;25231;48.746;9.234;2023-01-09T02:11:56;95021.88;;;6.76;100.00
39555;BME280;25231;48.746;9.234;2023-01-09T02:14:24;95016.38;;;6.73;100.00
39555;BME280;25231;48.746;9.234;2023-01-09T02:30:49;95011.13;;;6.67;100.00
39555;BME280;25231;48.746;9.234;2023-01-09T02:36:10;95007.41;;;6.63;100.00
39555;BME280;25231;48.746;9.234;2023-01-09T02:38:54;94994.75;;;6.72;100.00
39555;BME280;25231;48.746;9.234;2023-01-09T02:41:31;95014.16;;;6.59;100.00
39555;BME280;25231;48.746;9.234;2023-01-09T02:44:17;95033.53;;;6.68;100.00
39555;BME280;25231;48.746;9.234;2023-01-09T02:46:44;95032.78;;;6.73;100.00
39555;BME280;25231;48.746;9.234;2023-01-09T02:49:10;95035.91;;;6.75;100.00
39555;BME280;25231;48.746;9.234;2023-01-09T02:51:51;95030.47;;;6.77;100.00
39555;BME280;25231;48.746;9.234;2023-01-09T02:57:01;95041.81;;;6.65;100.00
39555;BME280;25231;48.746;9.234;2023-01-09T02:59:37;95031.91;;;6.62;100.00
39555;BME280;25231;48.746;9.234;2023-01-09T03:02:57;95037.09;;;6.62;100.00
39555;BME280;25231;48.746;9.234;2023-01-09T03:08:23;95055.31;;;6.62;100.00
39555;BME280;25231;48.746;9.234;2023-01-09T03:10:56;95062.34;;;6.62;100.00
39555;BME280;25231;48.746;9.234;2023-01-09T03:13:24;95055.50;;;6.56;100.00
39555;BME280;25231;48.746;9.234;2023-01-09T03:15:54;95059.63;;;6.52;100.00
39555;BME280;25231;48.746;9.234;2023-01-09T03:18:23;95060.38;;;6.52;100.00
39555;BME280;25231;48.746;9.234;2023-01-09T03:20:51;95063.25;;;6.51;100.00
39555;BME280;25231;48.746;9.234;2023-01-09T03:23:17;95054.34;;;6.47;100.00
39555;BME280;25231;48.746;9.234;2023-01-09T03:25:42;95041.59;;;6.45;100.00
39555;BME280;25231;48.746;9.234;2023-01-09T03:28:25;95051.69;;;6.42;100.00
39555;BME280;25231;48.746;9.234;2023-01-09T03:30:51;95060.78;;;6.39;100.00
39555;BME280;25231;48.746;9.234;2023-01-09T03:33:16;95068.81;;;6.38;100.00
39555;BME280;25231;48.746;9.234;2023-01-09T03:35:41;95070.28;;;6.29;100.00
39555;BME280;25231;48.746;9.234;2023-01-09T03:38:07;95083.28;;;6.29;100.00
39555;BME280;25231;48.746;9.234;2023-01-09T03:40:32;95095.28;;;6.30;100.00
39555;BME280;25231;48.746;9.234;2023-01-09T03:42:57;95096.75;;;6.25;100.00
39555;BME280;25231;48.746;9.234;2023-01-09T03:45:22;95100.47;;;6.30;100.00
39555;BME280;25231;48.746;9.234;2023-01-09T03:47:48;95111.13;;;6.28;100.00
39555;BME280;25231;48.746;9.234;2023-01-09T03:50:14;95122.25;;;6.23;100.00
39555;BME280;25231;48.746;9.234;2023-01-09T03:52:39;95126.00;;;6.33;100.00
39555;BME280;25231;48.746;9.234;2023-01-09T03:55:05;95130.03;;;6.23;100.00
39555;BME280;25231;48.746;9.234;2023-01-09T03:57:31;95136.63;;;6.31;100.00
39555;BME280;25231;48.746;9.234;2023-01-09T03:59:56;95143.91;;;6.29;100.00
39555;BME280;25231;48.746;9.234;2023-01-09T04:02:21;95150.81;;;6.40;100.00
39555;BME280;25231;48.746;9.234;2023-01-09T04:04:47;95158.78;;;6.34;100.00
39555;BME280;25231;48.746;9.234;2023-01-09T04:07:12;95168.47;;;6.38;100.00
39555;BME280;25231;48.746;9.234;2023-01-09T04:09:37;95178.03;;;6.33;100.00
39555;BME280;25231;48.746;9.234;2023-01-09T04:12:03;95187.41;;;6.34;100.00
39555;BME280;25231;48.746;9.234;2023-01-09T04:14:28;95209.41;;;6.26;100.00
39555;BME280;25231;48.746;9.234;2023-01-09T04:16:53;95229.91;;;6.22;100.00
39555;BME280;25231;48.746;9.234;2023-01-09T04:19:19;95233.78;;;6.20;100.00
39555;BME280;25231;48.746;9.234;2023-01-09T04:21:44;95240.72;;;6.14;100.00
39555;BME280;25231;48.746;9.234;2023-01-09T04:24:09;95240.47;;;5.99;100.00
39555;BME280;25231;48.746;9.234;2023-01-09T04:26:35;95247.22;;;5.83;100.00
39555;BME280;25231;48.746;9.234;2023-01-09T04:29:00;95248.41;;;5.93;100.00
39555;BME280;25231;48.746;9.234;2023-01-09T04:31:25;95259.00;;;5.74;100.00
39555;BME280;25231;48.746;9.234;2023-01-09T04:33:51;95258.84;;;5.81;100.00
39555;BME280;25231;48.746;9.234;2023-01-09T04:36:16;95257.00;;;5.65;100.00
39555;BME280;25231;48.746;9.234;2023-01-09T04:38:41;95268.41;;;5.64;100.00
39555;BME280;25231;48.746;9.234;2023-01-09T04:41:07;95275.91;;;5.60;100.00
39555;BME280;25231;48.746;9.234;2023-01-09T04:43:32;95265.78;;;5.47;100.00
39555;BME280;25231;48.746;9.234;2023-01-09T04:45:57;95272.09;;;5.51;100.00
39555;BME280;25231;48.746;9.234;2023-01-09T04:48:23;95280.25;;;5.43;100.00
39555;BME280;25231;48.746;9.234;2023-01-09T04:50:48;95277.69;;;5.31;100.00
39555;BME280;25231;48.746;9.234;2023-01-09T04:53:13;95283.38;;;5.28;100.00
39555;BME280;25231;48.746;9.234;2023-01-09T04:55:39;95289.19;;;5.35;100.00
39555;BME280;25231;48.746;9.234;2023-01-09T04:58:05;95289.66;;;5.32;100.00
39555;BME280;25231;48.746;9.234;2023-01-09T05:00:31;95289.34;;;5.29;100.00
39555;BME280;25231;48.746;9.234;2023-01-09T05:02:56;95285.59;;;5.25;100.00
39555;BME280;25231;48.746;9.234;2023-01-09T05:05:22;95281.59;;;5.17;100.00
39555;BME280;25231;48.746;9.234;2023-01-09T05:07:47;95283.50;;;5.22;100.00
39555;BME280;25231;48.746;9.234;2023-01-09T05:10:12;95296.78;;;5.25;100.00
39555;BME280;25231;48.746;9.234;2023-01-09T05:12:38;95294.31;;;5.19;100.00
39555;BME280;25231;48.746;9.234;2023-01-09T05:15:05;95310.03;;;5.24;100.00
39555;BME280;25231;48.746;9.234;2023-01-09T05:17:31;95312.50;;;5.19;100.00
39555;BME280;25231;48.746;9.234;2023-01-09T05:19:56;95322.13;;;5.18;100.00
39555;BME280;25231;48.746;9.234;2023-01-09T05:22:21;95331.72;;;5.18;100.00
39555;BME280;25231;48.746;9.234;2023-01-09T05:24:47;95338.81;;;5.22;100.00
39555;BME280;25231;48.746;9.234;2023-01-09T05:27:12;95353.03;;;5.20;100.00
39555;BME280;25231;48.746;9.234;2023-01-09T05:29:37;95352.81;;;5.21;100.00
39555;BME280;25231;48.746;9.234;2023-01-09T05:32:03;95363.78;;;5.23;100.00
39555;BME280;25231;48.746;9.234;2023-01-09T05:34:28;95365.69;;;5.16;100.00
39555;BME280;25231;48.746;9.234;2023-01-09T05:36:54;95379.47;;;5.17;100.00
39555;BME280;25231;48.746;9.234;2023-01-09T05:39:19;95381.50;;;5.15;100.00
39555;BME280;25231;48.746;9.234;2023-01-09T05:41:44;95389.41;;;5.08;100.00
39555;BME280;25231;48.746;9.234;2023-01-09T05:44:10;95398.56;;;4.99;100.00
39555;BME280;25231;48.746;9.234;2023-01-09T05:46:35;95398.22;;;4.95;100.00
39555;BME280;25231;48.746;9.234;2023-01-09T05:49:00;95404.53;;;4.88;100.00
39555;BME280;25231;48.746;9.234;2023-01-09T05:51:26;95410.31;;;4.90;100.00
39555;BME280;25231;48.746;9.234;2023-01-09T05:53:51;95409.72;;;4.76;100.00
39555;BME280;25231;48.746;9.234;2023-01-09T05:56:16;95419.75;;;4.73;100.00
39555;BME280;25231;48.746;9.234;2023-01-09T05:58:42;95413.06;;;4.65;100.00
39555;BME280;25231;48.746;9.234;2023-01-09T06:01:07;95410.78;;;4.57;100.00
39555;BME280;25231;48.746;9.234;2023-01-09T06:03:33;95415.84;;;4.52;100.00
39555;BME280;25231;48.746;9.234;2023-01-09T06:05:58;95411.56;;;4.46;100.00
39555;BME280;25231;48.746;9.234;2023-01-09T06:08:23;95412.25;;;4.53;100.00
39555;BME280;25231;48.746;9.234;2023-01-09T06:10:49;95424.69;;;4.51;100.00
39555;BME280;25231;48.746;9.234;2023-01-09T06:13:14;95430.63;;;4.51;100.00
39555;BME280;25231;48.746;9.234;2023-01-09T06:15:40;95428.56;;;4.42;100.00
39555;BME280;25231;48.746;9.234;2023-01-09T06:18:06;95425.78;;;4.43;100.00
39555;BME280;25231;48.746;9.234;2023-01-09T06:20:31;95423.19;;;4.43;100.00
39555;BME280;25231;48.746;9.234;2023-01-09T06:22:57;95426.94;;;4.29;100.00
39555;BME280;25231;48.746;9.234;2023-01-09T06:25:22;95424.34;;;4.17;100.00
39555;BME280;25231;48.746;9.234;2023-01-09T06:27:48;95425.47;;;4.22;100.00
39555;BME280;25231;48.746;9.234;2023-01-09T06:30:16;95429.94;;;4.14;100.00
39555;BME280;25231;48.746;9.234;2023-01-09T06:32:42;95439.91;;;4.17;100.00
39555;BME280;25231;48.746;9.234;2023-01-09T06:35:07;95437.16;;;4.12;100.00
39555;BME280;25231;48.746;9.234;2023-01-09T06:37:33;95438.97;;;4.12;100.00
39555;BME280;25231;48.746;9.234;2023-01-09T06:39:58;95436.81;;;4.09;100.00
39555;BME280;25231;48.746;9.234;2023-01-09T06:42:23;95451.00;;;4.06;100.00
39555;BME280;25231;48.746;9.234;2023-01-09T06:44:49;95441.41;;;4.07;100.00
39555;BME280;25231;48.746;9.234;2023-01-09T06:47:14;95441.19;;;4.08;100.00
39555;BME280;25231;48.746;9.234;2023-01-09T06:49:40;95449.78;;;4.09;100.00
39555;BME280;25231;48.746;9.234;2023-01-09T06:52:05;95445.47;;;4.03;100.00
39555;BME280;25231;48.746;9.234;2023-01-09T06:54:32;95452.38;;;3.91;100.00
39555;BME280;25231;48.746;9.234;2023-01-09T06:56:58;95461.88;;;3.97;100.00
39555;BME280;25231;48.746;9.234;2023-01-09T06:59:23;95458.00;;;4.06;100.00
39555;BME280;25231;48.746;9.234;2023-01-09T07:01:48;95461.16;;;4.08;100.00
39555;BME280;25231;48.746;9.234;2023-01-09T07:04:14;95459.72;;;4.12;100.00
39555;BME280;25231;48.746;9.234;2023-01-09T07:06:41;95464.75;;;4.07;100.00
39555;BME280;25231;48.746;9.234;2023-01-09T07:09:06;95462.31;;;4.12;100.00
39555;BME280;25231;48.746;9.234;2023-01-09T07:11:32;95464.66;;;4.13;100.00
39555;BME280;25231;48.746;9.234;2023-01-09T07:13:57;95454.44;;;4.18;100.00
39555;BME280;25231;48.746;9.234;2023-01-09T07:16:22;95460.53;;;4.24;100.00
39555;BME280;25231;48.746;9.234;2023-01-09T07:18:48;95460.41;;;4.19;100.00
39555;BME280;25231;48.746;9.234;2023-01-09T07:21:13;95459.41;;;4.20;100.00
39555;BME280;25231;48.746;9.234;2023-01-09T07:23:38;95460.66;;;4.17;100.00
39555;BME280;25231;48.746;9.234;2023-01-09T07:26:04;95457.38;;;4.22;100.00
39555;BME280;25231;48.746;9.234;2023-01-09T07:28:29;95465.03;;;4.17;100.00
39555;BME280;25231;48.746;9.234;2023-01-09T07:30:54;95476.63;;;4.14;100.00
39555;BME280;25231;48.746;9.234;2023-01-09T07:33:20;95476.53;;;4.21;100.00
39555;BME280;25231;48.746;9.234;2023-01-09T07:35:45;95475.09;;;4.25;100.00
39555;BME280;25231;48.746;9.234;2023-01-09T07:38:10;95469.56;;;4.22;100.00
39555;BME280;25231;48.746;9.234;2023-01-09T07:40:36;95472.28;;;4.27;100.00
39555;BME280;25231;48.746;9.234;2023-01-09T07:43:01;95478.16;;;5.63;100.00
39555;BME280;25231;48.746;9.234;2023-01-09T07:45:27;95482.47;;;5.23;100.00
39555;BME280;25231;48.746;9.234;2023-01-09T07:47:52;95479.78;;;4.76;100.00
39555;BME280;25231;48.746;9.234;2023-01-09T07:50:18;95477.69;;;4.55;100.00
39555;BME280;25231;48.746;9.234;2023-01-09T07:52:46;95483.56;;;4.50;100.00
39555;BME280;25231;48.746;9.234;2023-01-09T07:55:12;95488.25;;;4.42;100.00
39555;BME280;25231;48.746;9.234;2023-01-09T07:57:37;95488.69;;;4.39;100.00
39555;BME280;25231;48.746;9.234;2023-01-09T08:00:04;95491.78;;;4.29;100.00
39555;BME280;25231;48.746;9.234;2023-01-09T08:02:31;95502.75;;;4.31;100.00
39555;BME280;25231;48.746;9.234;2023-01-09T08:04:56;95505.25;;;4.38;100.00
39555;BME280;25231;48.746;9.234;2023-01-09T08:07:21;95496.91;;;4.36;100.00
39555;BME280;25231;48.746;9.234;2023-01-09T08:09:47;95504.38;;;4.44;100.00
39555;BME280;25231;48.746;9.234;2023-01-09T08:12:12;95504.78;;;4.59;100.00
39555;BME280;25231;48.746;9.234;2023-01-09T08:14:37;95498.50;;;4.67;100.00
39555;BME280;25231;48.746;9.234;2023-01-09T08:17:03;95503.03;;;4.83;100.00
39555;BME280;25231;48.746;9.234;2023-01-09T08:19:28;95501.25;;;4.83;100.00
39555;BME280;25231;48.746;9.234;2023-01-09T08:21:53;95499.19;;;4.85;100.00
39555;BME280;25231;48.746;9.234;2023-01-09T08:24:19;95502.94;;;4.78;100.00
39555;BME280;25231;48.746;9.234;2023-01-09T08:26:44;95505.13;;;4.63;100.00
39555;BME280;25231;48.746;9.234;2023-01-09T08:29:10;95499.16;;;4.74;100.00
39555;BME280;25231;48.746;9.234;2023-01-09T08:31:35;95504.91;;;4.64;100.00
39555;BME280;25231;48.746;9.234;2023-01-09T08:34:01;95507.06;;;4.67;100.00
39555;BME280;25231;48.746;9.234;2023-01-09T08:36:26;95501.56;;;4.75;100.00
39555;BME280;25231;48.746;9.234;2023-01-09T08:38:52;95505.06;;;4.81;100.00
39555;BME280;25231;48.746;9.234;2023-01-09T08:41:17;95508.69;;;4.91;100.00
39555;BME280;25231;48.746;9.234;2023-01-09T08:44:01;95504.28;;;4.80;100.00
39555;BME280;25231;48.746;9.234;2023-01-09T08:46:45;95507.78;;;4.86;100.00
39555;BME280;25231;48.746;9.234;2023-01-09T08:49:29;95505.44;;;4.96;100.00
39555;BME280;25231;48.746;9.234;2023-01-09T08:51:54;95513.25;;;5.08;100.00
39555;BME280;25231;48.746;9.234;2023-01-09T08:54:19;95508.50;;;5.05;100.00
39555;BME280;25231;48.746;9.234;2023-01-09T08:56:45;95514.84;;;5.09;100.00
39555;BME280;25231;48.746;9.234;2023-01-09T08:59:10;95512.25;;;5.20;100.00
39555;BME280;25231;48.746;9.234;2023-01-09T09:01:37;95508.06;;;5.19;100.00
39555;BME280;25231;48.746;9.234;2023-01-09T09:04:02;95510.13;;;5.17;100.00
39555;BME280;25231;48.746;9.234;2023-01-09T09:06:29;95515.19;;;5.35;100.00
39555;BME280;25231;48.746;9.234;2023-01-09T09:08:55;95521.97;;;5.36;100.00
39555;BME280;25231;48.746;9.234;2023-01-09T09:11:20;95519.63;;;5.47;100.00
39555;BME280;25231;48.746;9.234;2023-01-09T09:13:45;95518.28;;;5.56;100.00
39555;BME280;25231;48.746;9.234;2023-01-09T09:16:11;95515.09;;;5.65;100.00
39555;BME280;25231;48.746;9.234;2023-01-09T09:18:36;95504.28;;;5.57;100.00
39555;BME280;25231;48.746;9.234;2023-01-09T09:21:01;95508.44;;;5.69;100.00
39555;BME280;25231;48.746;9.234;2023-01-09T09:23:27;95505.50;;;5.54;100.00
39555;BME280;25231;48.746;9.234;2023-01-09T09:25:52;95513.53;;;5.64;100.00
39555;BME280;25231;48.746;9.234;2023-01-09T09:28:17;95512.19;;;5.73;100.00
39555;BME280;25231;48.746;9.234;2023-01-09T09:30:43;95514.53;;;5.86;100.00
39555;BME280;25231;48.746;9.234;2023-01-09T09:33:08;95520.91;;;5.91;100.00
39555;BME280;25231;48.746;9.234;2023-01-09T09:35:34;95518.72;;;5.99;100.00
39555;BME280;25231;48.746;9.234;2023-01-09T09:38:00;95509.34;;;5.98;100.00
39555;BME280;25231;48.746;9.234;2023-01-09T09:43:23;95521.53;;;6.09;100.00
39555;BME280;25231;48.746;9.234;2023-01-09T09:49:02;95526.00;;;6.25;100.00
39555;BME280;25231;48.746;9.234;2023-01-09T09:54:18;95537.94;;;6.50;100.00
39555;BME280;25231;48.746;9.234;2023-01-09T09:56:49;95543.53;;;6.70;100.00
39555;BME280;25231;48.746;9.234;2023-01-09T09:59:20;95543.69;;;6.80;100.00
39555;BME280;25231;48.746;9.234;2023-01-09T10:04:37;95543.16;;;7.06;100.00
39555;BME280;25231;48.746;9.234;2023-01-09T10:07:15;95528.25;;;7.19;97.40
39555;BME280;25231;48.746;9.234;2023-01-09T10:09:48;95533.75;;;7.22;97.83
39555;BME280;25231;48.746;9.234;2023-01-09T10:14:40;95515.53;;;7.22;95.54
39555;BME280;25231;48.746;9.234;2023-01-09T10:19:54;95512.81;;;7.00;96.93
39555;BME280;25231;48.746;9.234;2023-01-09T10:27:53;95510.44;;;6.99;97.68
39555;BME280;25231;48.746;9.234;2023-01-09T10:35:47;95508.56;;;7.11;97.17
39555;BME280;25231;48.746;9.234;2023-01-09T10:38:20;95510.59;;;7.09;95.68
39555;BME280;25231;48.746;9.234;2023-01-09T10:40:54;95503.59;;;7.09;94.91
39555;BME280;25231;48.746;9.234;2023-01-09T10:45:56;95512.59;;;7.02;96.50
39555;BME280;25231;48.746;9.234;2023-01-09T10:48:35;95507.69;;;7.05;96.13
39555;BME280;25231;48.746;9.234;2023-01-09T10:51:15;95510.69;;;7.14;95.87
39555;BME280;25231;48.746;9.234;2023-01-09T10:53:48;95511.03;;;7.18;95.49
39555;BME280;25231;48.746;9.234;2023-01-09T10:56:23;95505.56;;;7.19;97.05
39555;BME280;25231;48.746;9.234;2023-01-09T10:58:51;95508.94;;;7.36;98.44
39555;BME280;25231;48.746;9.234;2023-01-09T11:01:28;95506.69;;;7.06;100.00
39555;BME280;25231;48.746;9.234;2023-01-09T11:03:54;95491.91;;;7.12;97.98
39555;BME280;25231;48.746;9.234;2023-01-09T11:06:28;95496.97;;;7.19;97.75
39555;BME280;25231;48.746;9.234;2023-01-09T11:08:58;95494.25;;;7.14;98.56
39555;BME280;25231;48.746;9.234;2023-01-09T11:11:38;95496.19;;;7.18;99.13
39555;BME280;25231;48.746;9.234;2023-01-09T11:14:14;95499.16;;;7.10;100.00
39555;BME280;25231;48.746;9.234;2023-01-09T11:16:58;95500.34;;;7.19;99.43
39555;BME280;25231;48.746;9.234;2023-01-09T11:19:24;95489.53;;;7.27;98.32
39555;BME280;25231;48.746;9.234;2023-01-09T11:22:07;95502.66;;;7.32;97.74
39555;BME280;25231;48.746;9.234;2023-01-09T11:24:33;95487.66;;;7.39;96.28
39555;BME280;25231;48.746;9.234;2023-01-09T11:29:37;95480.59;;;7.57;96.15
39555;BME280;25231;48.746;9.234;2023-01-09T11:32:03;95477.50;;;7.60;96.34
39555;BME280;25231;48.746;9.234;2023-01-09T11:34:33;95470.72;;;7.42;94.81
39555;BME280;25231;48.746;9.234;2023-01-09T11:37:02;95484.81;;;7.41;95.41
39555;BME280;25231;48.746;9.234;2023-01-09T11:39:31;95478.81;;;7.40;95.14
39555;BME280;25231;48.746;9.234;2023-01-09T11:42:00;95480.03;;;7.55;95.09
39555;BME280;25231;48.746;9.234;2023-01-09T11:44:27;95474.16;;;7.64;93.72
39555;BME280;25231;48.746;9.234;2023-01-09T11:46:54;95478.13;;;7.67;92.50
39555;BME280;25231;48.746;9.234;2023-01-09T11:49:25;95470.38;;;7.72;92.55
39555;BME280;25231;48.746;9.234;2023-01-09T11:52:13;95462.78;;;7.70;91.82
39555;BME280;25231;48.746;9.234;2023-01-09T11:54:43;95464.50;;;7.81;91.89
39555;BME280;25231;48.746;9.234;2023-01-09T11:57:11;95473.63;;;7.62;91.68
39555;BME280;25231;48.746;9.234;2023-01-09T11:59:37;95468.59;;;7.56;92.39
39555;BME280;25231;48.746;9.234;2023-01-09T12:10:18;95459.88;;;7.67;91.48
39555;BME280;25231;48.746;9.234;2023-01-09T12:13:12;95459.88;;;7.67;92.39
39555;BME280;25231;48.746;9.234;2023-01-09T12:18:43;95462.09;;;7.58;92.41
39555;BME280;25231;48.746;9.234;2023-01-09T12:22:04;95464.44;;;7.76;90.51
39555;BME280;25231;48.746;9.234;2023-01-09T12:29:55;95465.59;;;7.85;91.84
39555;BME280;25231;48.746;9.234;2023-01-09T12:32:37;95463.00;;;7.85;92.13
39555;BME280;25231;48.746;9.234;2023-01-09T12:43:28;95481.84;;;7.92;94.34
39555;BME280;25231;48.746;9.234;2023-01-09T12:46:14;95495.63;;;8.10;90.40
39555;BME280;25231;48.746;9.234;2023-01-09T12:54:32;95493.25;;;8.08;89.86
39555;BME280;25231;48.746;9.234;2023-01-09T12:56:53;95498.97;;;7.83;91.55
39555;BME280;25231;48.746;9.234;2023-01-09T12:59:27;95498.28;;;7.55;91.87
39555;BME280;25231;48.746;9.234;2023-01-09T13:04:31;95490.56;;;7.81;93.09
39555;BME280;25231;48.746;9.234;2023-01-09T13:07:04;95494.59;;;7.89;92.89
39555;BME280;25231;48.746;9.234;2023-01-09T13:12:16;95477.03;;;8.01;91.51
39555;BME280;25231;48.746;9.234;2023-01-09T13:15:03;95492.97;;;7.66;92.71
39555;BME280;25231;48.746;9.234;2023-01-09T13:19:59;95495.88;;;7.70;93.07
39555;BME280;25231;48.746;9.234;2023-01-09T13:22:27;95501.81;;;7.65;96.17
39555;BME280;25231;48.746;9.234;2023-01-09T13:25:00;95503.75;;;7.36;99.38
39555;BME280;25231;48.746;9.234;2023-01-09T13:27:31;95510.69;;;7.14;100.00
39555;BME280;25231;48.746;9.234;2023-01-09T13:30:14;95520.06;;;6.98;100.00
39555;BME280;25231;48.746;9.234;2023-01-09T13:33:06;95522.44;;;7.00;100.00
39555;BME280;25231;48.746;9.234;2023-01-09T13:35:51;95519.44;;;7.08;100.00
39555;BME280;25231;48.746;9.234;2023-01-09T13:38:20;95517.72;;;7.14;100.00
39555;BME280;25231;48.746;9.234;2023-01-09T13:40:59;95526.72;;;7.06;100.00
39555;BME280;25231;48.746;9.234;2023-01-09T13:46:34;95514.09;;;7.31;100.00
39555;BME280;25231;48.746;9.234;2023-01-09T13:49:01;95514.56;;;7.45;100.00
39555;BME280;25231;48.746;9.234;2023-01-09T13:54:09;95516.97;;;7.30;100.00
39555;BME280;25231;48.746;9.234;2023-01-09T13:59:37;95512.75;;;7.12;100.00
39555;BME280;25231;48.746;9.234;2023-01-09T14:02:02;95526.00;;;6.94;100.00
39555;BME280;25231;48.746;9.234;2023-01-09T14:04:39;95531.22;;;7.10;100.00
39555;BME280;25231;48.746;9.234;2023-01-09T14:07:19;95531.00;;;7.12;100.00
39555;BME280;25231;48.746;9.234;2023-01-09T14:09:51;95531.81;;;6.84;100.00
39555;BME280;25231;48.746;9.234;2023-01-09T14:12:19;95540.09;;;6.81;100.00
39555;BME280;25231;48.746;9.234;2023-01-09T14:14:47;95539.03;;;6.65;100.00
39555;BME280;25231;48.746;9.234;2023-01-09T14:17:22;95536.53;;;6.59;100.00
39555;BME280;25231;48.746;9.234;2023-01-09T14:19:54;95541.88;;;6.52;99.45
39555;BME280;25231;48.746;9.234;2023-01-09T14:22:26;95545.06;;;6.54;99.80
39555;BME280;25231;48.746;9.234;2023-01-09T14:24:53;95557.00;;;6.39;100.00
39555;BME280;25231;48.746;9.234;2023-01-09T14:32:59;95573.28;;;6.46;99.16
39555;BME280;25231;48.746;9.234;2023-01-09T14:35:31;95566.56;;;6.50;98.94
39555;BME280;25231;48.746;9.234;2023-01-09T14:38:02;95570.28;;;6.54;96.65
39555;BME280;25231;48.746;9.234;2023-01-09T14:40:29;95576.22;;;6.38;96.42
39555;BME280;25231;48.746;9.234;2023-01-09T14:42:58;95583.34;;;6.42;97.83
39555;BME280;25231;48.746;9.234;2023-01-09T14:45:29;95580.53;;;6.32;96.62
39555;BME280;25231;48.746;9.234;2023-01-09T14:47:59;95592.75;;;6.32;98.08
39555;BME280;25231;48.746;9.234;2023-01-09T14:50:43;95596.63;;;6.17;98.40
39555;BME280;25231;48.746;9.234;2023-01-09T14:53:25;95606.47;;;6.15;96.46
39555;BME280;25231;48.746;9.234;2023-01-09T14:55:55;95608.72;;;6.00;95.46
39555;BME280;25231;48.746;9.234;2023-01-09T15:00:54;95628.84;;;5.93;95.74
39555;BME280;25231;48.746;9.234;2023-01-09T15:03:21;95633.47;;;5.79;96.33